Weather at Plum Valley Airport

Public forecast

Using degrees Fahrenheit for public forecast. Weather courtesy of forecast.io.

Closest aviation weather report (METAR) to Plum Valley Airport

Closest report is Mc Minnville Municipal Airport, 9.8 nm (18.1 km) N. Retrieved 2021/07/24 23:53 UTC (11 minutes ago):

KMMV 242353Z AUTO 01011KT 10SM CLR 33/12 A3000 RMK AO2 SLP157 T03330117 10339 20267 56019

Closest aviation forecast (TAF) to Plum Valley Airport

Closest forecast is Salem Municipal Airport/McNary Field, 10.4 nm (19.2 km) SE. Retrieved 2021-07-25 00:30 UTC (0 seconds ago):

TAF KSLE 242327Z 2500/2524 35012G19KT P6SM SKC FM250300 34010KT P6SM SKC FM250700 33004KT P6SM SKC FM252000 01008G18KT P6SM SKC